Flight Track Log - Related Links

Times and Time Zones

All times are in EDT time to prevent confusion due to time zone crossing. See the N6510V flight status page for this flight to view local times or setup timezone preferences in your user account.


Time Position Orientation Groundspeed Altitude Reporting Facility
EDT Latitude Longitude Course Direction KTS MPH feet Rate Location/Type
Thu 02:37:07 PM 34.9547 -80.6861 223° Southwest 132 152 2,600  Level Atlanta Center
Thu 02:37:44 PM 34.9386 -80.7044 223° Southwest 131 151 3,000 735 Climbing Atlanta Center
Thu 02:38:45 PM 34.9228 -80.7353 238° Southwest 115 132 3,800 787 Climbing Atlanta Center
Thu 02:39:46 PM 34.9047 -80.7692 237° Southwest 107 123 4,600 563 Climbing Atlanta Center
Thu 02:40:53 PM 34.8786 -80.8056 229° Southwest 129 148 5,000 451 Climbing Atlanta Center
Thu 02:41:59 PM 34.8547 -80.8469 235° Southwest 140 161 5,600 614 Climbing Atlanta Center
Thu 02:43:00 PM 34.8325 -80.8808 231° Southwest 125 144 6,300 718 Climbing Atlanta Center
Thu 02:43:56 PM 34.8061 -80.9019 213° Southwest 121 139 7,000 703 Climbing Atlanta Center
Thu 02:44:51 PM 34.7792 -80.9131 199° South 116 133 7,600 694 Climbing Atlanta Center
Thu 02:45:57 PM 34.7419 -80.9244 194° South 116 133 8,400 709 Climbing Atlanta Center
Thu 02:46:58 PM 34.7128 -80.9308 190° South 112 129 9,100 590 Climbing Atlanta Center
Thu 02:47:59 PM 34.6906 -80.9517 218° Southwest 97 112 9,600 469 Climbing Atlanta Center
Thu 02:49:06 PM 34.6789 -80.9925 252° West 108 124 10,100 234 Climbing Atlanta Center
Thu 02:50:07 PM 34.6611 -81.0286 239° Southwest 136 157 10,100 -49 Level Atlanta Center
Thu 02:51:08 PM 34.6456 -81.0744 248° West 155 178 10,000 -52 Descending Atlanta Center
Thu 02:52:03 PM 34.6278 -81.1181 244° Southwest 151 174 10,000  Level Atlanta Center
Thu 02:53:04 PM 34.6100 -81.1642 245° Southwest 151 174 10,000 51 Level Atlanta Center
Thu 03:01:48 PM 34.4003 -81.4936 226° Southwest 170 196 10,500 134 Climbing Atlanta Center
Thu 03:02:00 PM 34.4053 -81.5524 243° Southwest  Level FlightAware Approximate
Thu 03:02:48 PM 34.3842 -81.5242 237° Southwest 141 162 11,300  Level Atlanta Center
Thu 03:03:00 PM 34.3859 -81.5983 243° Southwest  Level FlightAware Approximate
Thu 03:03:48 PM 34.3722 -81.5497 240° Southwest 119 137 11,800  Level Atlanta Center
Thu 03:04:00 PM 34.3569 -81.6352 226° Southwest  Level FlightAware Approximate
Thu 03:04:48 PM 34.3539 -81.5806 234° Southwest 111 128 12,000  Level Atlanta Center
Thu 03:05:00 PM 34.3279 -81.6721 226° Southwest  Level FlightAware Approximate
Thu 03:05:48 PM 34.3361 -81.6186 241° Southwest 118 136 12,000  Level Atlanta Center
Thu 03:06:00 PM 34.2989 -81.7090 226° Southwest  Level FlightAware Approximate
Thu 03:06:48 PM 34.3139 -81.6597 237° Southwest 132 152 12,000  Level Atlanta Center
Thu 03:07:48 PM 34.2897 -81.7006 234° Southwest 148 170 12,000  Level Atlanta Center
Thu 03:08:48 PM 34.2675 -81.7439 238° Southwest 148 170 12,000  Level Atlanta Center
Thu 03:09:48 PM 34.2472 -81.7847 239° Southwest 148 170 12,000  Level Atlanta Center
Thu 03:10:48 PM 34.2208 -81.8256 232° Southwest 148 170 12,000  Level Atlanta Center
Thu 03:11:48 PM 34.1989 -81.8689 239° Southwest 148 170 12,000  Level Atlanta Center
Thu 03:12:48 PM 34.1744 -81.9097 234° Southwest 148 170 12,000  Level Atlanta Center
Thu 03:13:48 PM 34.1500 -81.9478 232° Southwest 154 177 12,000  Level Atlanta Center
Thu 03:14:48 PM 34.1256 -81.9886 234° Southwest 154 177 12,000  Level Atlanta Center
Thu 03:15:48 PM 34.1014 -82.0294 234° Southwest 154 177 12,000  Level Atlanta Center
Thu 03:16:48 PM 34.0769 -82.0725 236° Southwest 154 177 12,000 -50 Level Atlanta Center
Thu 03:17:48 PM 34.0547 -82.1131 237° Southwest 149 171 11,900  Descending Atlanta Center
Thu 03:18:48 PM 34.0281 -82.1564 233° Southwest 149 171 12,000 50 Climbing Atlanta Center
Thu 03:19:48 PM 34.0036 -82.1944 232° Southwest 149 171 12,000  Level Atlanta Center
Thu 03:20:48 PM 33.9792 -82.2353 234° Southwest 149 171 12,000  Level Atlanta Center
Thu 03:21:48 PM 33.9547 -82.2758 234° Southwest 149 171 12,000  Level Atlanta Center
Thu 03:22:48 PM 33.9347 -82.3211 242° Southwest 149 171 12,000  Level Atlanta Center
Thu 03:23:48 PM 33.8997 -82.3619 224° Southwest 154 177 12,000  Level Atlanta Center
Thu 03:24:48 PM 33.8731 -82.4000 230° Southwest 154 177 12,000  Level Atlanta Center
Thu 03:25:48 PM 33.8464 -82.4356 228° Southwest 154 177 12,000  Level Atlanta Center
Thu 03:26:48 PM 33.8092 -82.4686 216° Southwest 154 177 12,000  Level Atlanta Center
Thu 03:27:48 PM 33.7783 -82.5017 222° Southwest 166 191 12,000  Level Atlanta Center
Thu 03:28:48 PM 33.7453 -82.5322 218° Southwest 160 184 12,000  Level Atlanta Center
Thu 03:29:48 PM 33.7122 -82.5628 218° Southwest 160 184 12,000  Level Atlanta Center
Thu 03:30:48 PM 33.6814 -82.5933 220° Southwest 153 176 12,000  Level Atlanta Center
Thu 03:31:48 PM 33.6483 -82.6239 218° Southwest 158 182 12,000  Level Atlanta Center
Thu 03:32:48 PM 33.6175 -82.6569 222° Southwest 158 182 12,000  Level Atlanta Center
Thu 03:33:48 PM 33.5844 -82.6897 220° Southwest 158 182 12,000  Level Atlanta Center
Thu 03:34:48 PM 33.5533 -82.7228 222° Southwest 160 184 12,000  Level Atlanta Center
Thu 03:35:48 PM 33.5161 -82.7581 218° Southwest 160 184 12,000  Level Atlanta Center
Thu 03:36:48 PM 33.4831 -82.7908 220° Southwest 160 184 12,000  Level Atlanta Center
Thu 03:37:48 PM 33.4500 -82.8264 222° Southwest 160 184 12,000  Level Atlanta Center
Thu 03:38:48 PM 33.4169 -82.8592 220° Southwest 160 184 12,000  Level Atlanta Center
Thu 03:39:48 PM 33.3861 -82.8919 222° Southwest 160 184 12,000  Level Atlanta Center
Thu 03:40:48 PM 33.3508 -82.9297 222° Southwest 160 184 12,000  Level Atlanta Center
Thu 03:41:48 PM 33.3200 -82.9625 222° Southwest 160 184 12,000  Level Atlanta Center
Thu 03:42:48 PM 33.2847 -83.0025 223° Southwest 164 189 12,000  Level Atlanta Center
Thu 03:43:48 PM 33.2536 -83.0353 221° Southwest 164 189 12,000  Level Atlanta Center
Thu 03:44:48 PM 33.2247 -83.0678 223° Southwest 158 182 12,000  Level Atlanta Center
Thu 03:45:48 PM 33.1917 -83.1056 224° Southwest 158 182 12,000  Level Atlanta Center
Thu 03:46:48 PM 33.1606 -83.1381 221° Southwest 158 182 12,000  Level Atlanta Center
Thu 03:47:48 PM 33.1275 -83.1731 222° Southwest 159 183 12,000  Level Atlanta Center
Thu 03:48:48 PM 33.1006 -83.2056 225° Southwest 159 183 12,000  Level Atlanta Center
Thu 03:49:48 PM 33.0694 -83.2406 223° Southwest 159 183 12,000  Level Atlanta Center
Thu 03:50:48 PM 33.0364 -83.2756 222° Southwest 159 183 12,000  Level Atlanta Center
Thu 03:51:48 PM 33.0050 -83.3081 221° Southwest 159 183 12,000  Level Atlanta Center
Thu 03:52:48 PM 32.9761 -83.3431 225° Southwest 159 183 12,000  Level Atlanta Center
Thu 03:53:48 PM 32.9450 -83.3756 221° Southwest 159 183 12,000  Level Atlanta Center
Thu 03:54:48 PM 32.9139 -83.4078 221° Southwest 159 183 12,000 -50 Level Atlanta Center
Thu 03:55:48 PM 32.8847 -83.4403 223° Southwest 154 177 11,900 -50 Descending Atlanta Center
Thu 03:56:48 PM 32.8517 -83.4725 219° Southwest 154 177 11,900  Level Atlanta Center
Thu 03:57:48 PM 32.8203 -83.5050 221° Southwest 154 177 11,900  Level Atlanta Center
Thu 03:58:48 PM 32.7914 -83.5397 225° Southwest 154 177 11,900  Level Atlanta Center
Thu 03:59:48 PM 32.7600 -83.5719 221° Southwest 154 177 11,900  Level Atlanta Center
Thu 04:00:48 PM 32.7311 -83.6042 223° Southwest 154 177 11,900  Level Atlanta Center
Thu 04:01:48 PM 32.6997 -83.6364 221° Southwest 159 183 11,900  Level Atlanta Center
Thu 04:02:48 PM 32.6769 -83.6761 236° Southwest 154 177 11,900  Level Atlanta Center
Thu 04:03:48 PM 32.6583 -83.7206 244° Southwest 149 171 11,900  Level Atlanta Center
Thu 04:04:48 PM 32.6397 -83.7600 241° Southwest 149 171 11,900  Level Atlanta Center
Thu 04:05:48 PM 32.6208 -83.8022 242° Southwest 149 171 11,900  Level Atlanta Center
Thu 04:06:48 PM 32.6000 -83.8467 241° Southwest 149 171 11,900  Level Atlanta Center
Thu 04:07:48 PM 32.5814 -83.8836 239° Southwest 149 171 11,900  Level Atlanta Center
Thu 04:08:48 PM 32.5628 -83.9281 244° Southwest 149 171 11,900  Level Atlanta Center
Thu 04:09:48 PM 32.5439 -83.9722 243° Southwest 144 166 11,900  Level Atlanta Center
Thu 04:10:48 PM 32.5253 -84.0117 241° Southwest 144 166 11,900  Level Atlanta Center
Thu 04:11:48 PM 32.5064 -84.0536 242° Southwest 144 166 11,900  Level Atlanta Center
Thu 04:12:48 PM 32.4875 -84.0956 242° Southwest 144 166 11,900  Level Atlanta Center
Thu 04:13:48 PM 32.4689 -84.1372 242° Southwest 144 166 11,900  Level Atlanta Center
Thu 04:14:48 PM 32.4478 -84.1792 239° Southwest 144 166 11,900  Level Atlanta Center
Thu 04:15:48 PM 32.4289 -84.2233 243° Southwest 144 166 11,900  Level Atlanta Center
Thu 04:16:48 PM 32.4122 -84.2653 245° Southwest 144 166 11,900  Level Atlanta Center
Thu 04:17:48 PM 32.3914 -84.3069 239° Southwest 144 166 11,900  Level Atlanta Center
Thu 04:18:48 PM 32.3725 -84.3461 240° Southwest 144 166 11,900  Level Atlanta Center
Thu 04:19:48 PM 32.3536 -84.3906 243° Southwest 144 166 11,900  Level Atlanta Center
Thu 04:20:48 PM 32.3347 -84.4322 242° Southwest 144 166 11,900  Level Atlanta Center
Thu 04:21:48 PM 32.3136 -84.4739 239° Southwest 144 166 11,900  Level Atlanta Center
Thu 04:22:48 PM 32.2947 -84.5181 243° Southwest 144 166 11,900  Level Atlanta Center
Thu 04:23:48 PM 32.2736 -84.5597 239° Southwest 144 166 11,900 50 Level Atlanta Center
Thu 04:24:48 PM 32.2547 -84.6014 242° Southwest 144 166 12,000  Climbing Atlanta Center
Thu 04:25:48 PM 32.2336 -84.6453 240° Southwest 149 171 11,900 -50 Descending Atlanta Center
Thu 04:26:48 PM 32.2144 -84.6869 241° Southwest 149 171 11,900  Level Atlanta Center
Thu 04:27:48 PM 32.1956 -84.7286 242° Southwest 154 177 11,900  Level Atlanta Center
Thu 04:28:48 PM 32.1744 -84.7725 240° Southwest 154 177 11,900  Level Atlanta Center
Thu 04:29:48 PM 32.1575 -84.8142 244° Southwest 154 177 11,900  Level Atlanta Center
Thu 04:30:48 PM 32.1364 -84.8581 240° Southwest 154 177 11,900  Level Atlanta Center
Thu 04:31:48 PM 32.1172 -84.8972 240° Southwest 148 170 11,900  Level Atlanta Center
Thu 04:32:48 PM 32.1003 -84.9386 244° Southwest 154 177 11,900  Level Atlanta Center
Thu 04:33:48 PM 32.0792 -84.9800 239° Southwest 154 177 11,900  Level Atlanta Center
Thu 04:34:48 PM 32.0578 -85.0239 240° Southwest 149 171 11,900  Level Atlanta Center
Thu 04:35:48 PM 32.0408 -85.0631 243° Southwest 149 171 11,900  Level Atlanta Center
Thu 04:36:48 PM 32.0197 -85.1069 240° Southwest 156 180 11,900 50 Level Atlanta Center
Thu 04:37:48 PM 32.0047 -85.1433 244° Southwest 151 174 12,000  Climbing Atlanta Center
Thu 04:38:48 PM 31.9833 -85.1847 239° Southwest 151 174 11,900  Descending Atlanta Center
Thu 04:41:39 PM 31.9200 -85.3158 240° Southwest 145 167 12,000 26 Climbing Jacksonville Center
Thu 04:42:39 PM 31.9003 -85.3569 241° Southwest 145 167 12,000  Level Jacksonville Center
Thu 04:43:39 PM 31.8828 -85.4003 245° Southwest 150 173 12,000  Level Jacksonville Center
Thu 04:44:39 PM 31.8611 -85.4414 238° Southwest 150 173 12,000  Level Jacksonville Center
Thu 04:45:39 PM 31.8414 -85.4825 241° Southwest 150 173 12,000  Level Jacksonville Center
Thu 04:46:39 PM 31.8261 -85.5186 244° Southwest 155 178 12,000  Level Jacksonville Center
Thu 04:47:39 PM 31.8044 -85.5644 241° Southwest 155 178 12,000  Level Jacksonville Center
Thu 04:48:39 PM 31.7847 -85.6078 242° Southwest 155 178 12,000  Level Jacksonville Center
Thu 04:49:39 PM 31.7650 -85.6464 239° Southwest 155 178 12,000  Level Jacksonville Center
Thu 04:50:39 PM 31.7453 -85.6897 242° Southwest 155 178 12,000  Level Jacksonville Center
Thu 04:51:39 PM 31.7236 -85.7306 238° Southwest 155 178 12,000  Level Jacksonville Center
Thu 04:52:39 PM 31.7036 -85.7739 242° Southwest 155 178 12,000  Level Jacksonville Center
Thu 04:53:39 PM 31.6819 -85.8172 240° Southwest 155 178 12,000  Level Jacksonville Center
Thu 04:54:39 PM 31.6619 -85.8631 243° Southwest 155 178 12,000  Level Jacksonville Center
Thu 04:55:39 PM 31.6422 -85.9086 243° Southwest 155 178 12,000  Level Jacksonville Center
Thu 04:56:39 PM 31.6222 -85.9494 240° Southwest 155 178 12,000  Level Jacksonville Center
Thu 04:57:39 PM 31.6006 -85.9903 238° Southwest 155 178 12,000  Level Jacksonville Center
Thu 04:58:39 PM 31.5828 -86.0336 244° Southwest 155 178 12,000  Level Jacksonville Center
Thu 04:59:39 PM 31.5628 -86.0744 240° Southwest 155 178 12,000  Level Jacksonville Center
Thu 05:00:39 PM 31.5408 -86.1175 239° Southwest 155 178 12,000  Level Jacksonville Center
Thu 05:01:39 PM 31.5211 -86.1583 240° Southwest 155 178 12,000  Level Jacksonville Center
Thu 05:02:39 PM 31.5011 -86.2014 241° Southwest 155 178 12,000  Level Jacksonville Center
Thu 05:03:39 PM 31.4792 -86.2444 239° Southwest 155 178 12,000  Level Jacksonville Center
Thu 05:04:39 PM 31.4594 -86.2850 240° Southwest 155 178 12,000  Level Jacksonville Center
Thu 05:05:39 PM 31.4394 -86.3283 242° Southwest 155 178 12,000  Level Jacksonville Center
Thu 05:06:39 PM 31.4194 -86.3714 241° Southwest 155 178 12,000  Level Jacksonville Center
Thu 05:07:39 PM 31.3994 -86.4144 241° Southwest 155 178 12,000  Level Jacksonville Center
Thu 05:08:39 PM 31.3794 -86.4550 240° Southwest 155 178 12,000  Level Jacksonville Center
Thu 05:09:39 PM 31.3575 -86.4981 239° Southwest 155 178 12,000  Level Jacksonville Center
Thu 05:10:39 PM 31.3375 -86.5408 241° Southwest 155 178 12,000  Level Jacksonville Center
Thu 05:11:39 PM 31.3172 -86.5911 245° Southwest 155 178 12,000  Level Jacksonville Center
Thu 05:12:39 PM 31.3056 -86.6297 251° West 155 178 12,000  Level Jacksonville Center
Thu 05:13:39 PM 31.2997 -86.6831 263° West 155 178 12,000  Level Jacksonville Center
Thu 05:14:39 PM 31.2900 -86.7311 257° West 155 178 12,000  Level Jacksonville Center
Thu 05:15:39 PM 31.2803 -86.7817 257° West 161 185 12,000  Level Jacksonville Center
Thu 05:16:39 PM 31.2683 -86.8275 253° West 161 185 12,000  Level Jacksonville Center
Thu 05:17:39 PM 31.2544 -86.8731 250° West 161 185 12,000  Level Jacksonville Center
Thu 05:18:39 PM 31.2403 -86.9233 252° West 161 185 12,000  Level Jacksonville Center
Thu 05:19:39 PM 31.2242 -86.9689 248° West 161 185 12,000 -50 Level Jacksonville Center
Thu 05:20:39 PM 31.2100 -87.0192 252° West 161 185 11,900 -50 Descending Jacksonville Center
Thu 05:21:39 PM 31.1817 -87.0544 227° Southwest 155 178 11,900 50 Level Jacksonville Center
Thu 05:22:39 PM 31.1492 -87.0894 223° Southwest 155 178 12,000 50 Climbing Jacksonville Center
Thu 05:23:39 PM 31.1169 -87.1219 221° Southwest 155 178 12,000  Level Jacksonville Center
Thu 05:24:39 PM 31.0886 -87.1569 227° Southwest 155 178 12,000  Level Jacksonville Center
Thu 05:25:39 PM 31.0603 -87.1944 229° Southwest 160 184 12,000  Level Jacksonville Center
Thu 05:26:39 PM 31.0317 -87.2344 230° Southwest 160 184 12,000  Level Jacksonville Center
Thu 05:27:39 PM 31.0053 -87.2719 231° Southwest 160 184 12,000 34 Level Jacksonville Center
Thu 05:29:34 PM 30.9547 -87.3453 231° Southwest 160 184 12,100 34 Climbing Houston Center
Thu 05:30:36 PM 30.9350 -87.3900 243° Southwest 159 183 12,100  Level Houston Center
Thu 05:31:38 PM 30.9136 -87.4358 241° Southwest 159 183 12,100  Level Houston Center
Thu 05:32:40 PM 30.8886 -87.4883 241° Southwest 158 182 12,100  Level Houston Center
Thu 05:33:42 PM 30.8664 -87.5333 240° Southwest 159 183 12,100  Level Houston Center
Thu 05:34:45 PM 30.8461 -87.5786 242° Southwest 159 183 12,100  Level Houston Center
Thu 05:35:47 PM 30.8233 -87.6236 239° Southwest 161 185 12,100 -48 Level Houston Center
Thu 05:36:49 PM 30.8011 -87.6675 239° Southwest 160 184 12,000  Descending Houston Center
Thu 05:37:51 PM 30.7861 -87.7156 250° West 160 184 12,100 48 Climbing Houston Center
Thu 05:38:53 PM 30.7661 -87.7739 248° West 160 184 12,100  Level Houston Center
Thu 05:39:55 PM 30.7497 -87.8231 249° West 161 185 12,100  Level Houston Center
Thu 05:40:58 PM 30.7328 -87.8719 248° West 161 185 12,100  Level Houston Center
Thu 05:42:00 PM 30.7081 -87.9153 236° Southwest 161 185 12,100  Level Houston Center
Thu 05:43:02 PM 30.6853 -87.9606 240° Southwest 162 186 12,100  Level Houston Center
Thu 05:44:04 PM 30.6614 -88.0064 239° Southwest 162 186 12,100  Level Houston Center
Thu 05:45:06 PM 30.6344 -88.0592 239° Southwest 162 186 12,100  Level Houston Center
Thu 05:46:10 PM 30.6106 -88.1036 238° Southwest 162 186 12,100  Level Houston Center
Thu 05:47:11 PM 30.5869 -88.1486 239° Southwest 162 186 12,100 -49 Level Houston Center
Thu 05:48:13 PM 30.5625 -88.1944 238° Southwest 165 190 12,000 -48 Descending Houston Center
Thu 05:49:15 PM 30.5386 -88.2394 238° Southwest 165 190 12,000  Level Houston Center
Thu 05:50:17 PM 30.5150 -88.2828 238° Southwest 163 188 12,000  Level Houston Center
Thu 05:51:19 PM 30.4867 -88.3375 239° Southwest 163 188 12,000  Level Houston Center
Thu 05:52:22 PM 30.4625 -88.3831 238° Southwest 164 189 12,000  Level Houston Center
Thu 05:53:24 PM 30.4383 -88.4264 237° Southwest 163 188 12,000  Level Houston Center
Thu 05:54:26 PM 30.4158 -88.4711 240° Southwest 163 188 12,000  Level Houston Center
Thu 05:55:28 PM 30.3917 -88.5156 238° Southwest 163 188 12,000  Level Houston Center
Thu 05:56:30 PM 30.3672 -88.5606 238° Southwest 163 188 12,000 48 Level Houston Center
Thu 05:57:32 PM 30.3389 -88.6139 238° Southwest 163 188 12,100 48 Climbing Houston Center
Thu 05:58:35 PM 30.3117 -88.6564 233° Southwest 164 189 12,100 -48 Level Houston Center
Thu 05:59:37 PM 30.2836 -88.6964 231° Southwest 159 183 12,000 -48 Descending Houston Center
Thu 06:00:39 PM 30.2531 -88.7383 230° Southwest 169 194 12,000  Level Houston Center
Thu 06:01:41 PM 30.2239 -88.7811 232° Southwest 168 193 12,000 -48 Level Houston Center
Thu 06:02:43 PM 30.1878 -88.8289 229° Southwest 167 192 11,900 -48 Descending Houston Center
Thu 06:03:45 PM 30.1617 -88.8692 233° Southwest 166 191 11,900  Level Houston Center
Thu 06:04:48 PM 30.1331 -88.9125 233° Southwest 166 191 11,900  Level Houston Center
Thu 06:05:50 PM 30.1069 -88.9547 234° Southwest 166 191 11,900  Level Houston Center
Thu 06:06:52 PM 30.0783 -88.9967 232° Southwest 166 191 11,900  Level Houston Center
Thu 06:07:54 PM 30.0447 -89.0472 232° Southwest 166 191 11,900  Level Houston Center
Thu 06:08:56 PM 30.0181 -89.0894 234° Southwest 164 189 11,900  Level Houston Center
Thu 06:09:58 PM 29.9917 -89.1311 234° Southwest 164 189 11,900  Level Houston Center
Thu 06:11:01 PM 29.9606 -89.1694 227° Southwest 164 189 11,900  Level Houston Center
Thu 06:12:03 PM 29.9297 -89.2086 228° Southwest 164 189 11,900  Level Houston Center
Thu 06:13:05 PM 29.9053 -89.2528 237° Southwest 163 188 11,900  Level Houston Center
Thu 06:14:07 PM 29.8781 -89.3083 241° Southwest 165 190 11,900 -48 Level Houston Center
Thu 06:15:09 PM 29.8569 -89.3553 243° Southwest 165 190 11,800 -48 Descending Houston Center
Thu 06:16:11 PM 29.8317 -89.4031 239° Southwest 168 193 11,800 80 Level Houston Center
Thu 06:16:24 PM 29.8247 -89.4164 239° Southwest 169 194 11,900 -484 Climbing Houston Center
Thu 06:17:13 PM 29.8033 -89.4456 230° Southwest 168 193 11,300 -885 Descending Houston Center
Thu 06:17:25 PM 29.7947 -89.4583 232° Southwest 169 194 11,000 -1,180 Descending Houston Center
Thu 06:18:14 PM 29.7692 -89.4981 233° Southwest 182 209 10,100 -956 Descending Houston Center
Thu 06:19:18 PM 29.7408 -89.5378 231° Southwest 177 204 9,200 -1,000 Descending Houston Center
Thu 06:19:32 PM 29.7253 -89.5600 231° Southwest 190 219 8,800 -1,053 Descending Houston Center
Thu 06:20:15 PM 29.7036 -89.5922 232° Southwest 187 215 8,200 -692 Descending Houston Center
Thu 06:21:16 PM 29.6736 -89.6342 231° Southwest 175 201 7,600 -590 Descending Houston Center
Thu 06:22:17 PM 29.6417 -89.6764 229° Southwest 170 196 7,000 -646 Descending Houston Center
Thu 06:23:26 PM 29.6075 -89.7203 228° Southwest 177 204 6,200 -744 Descending Houston Center
Thu 06:24:18 PM 29.5736 -89.7656 229° Southwest 178 205 5,500 -667 Descending Houston Center
Thu 06:24:29 PM 29.5747 -89.7636 57° Northeast 177 204 5,500 -716 Level Houston Center
Thu 06:25:25 PM 29.5461 -89.8144 237° Southwest 173 199 4,700 -811 Descending Houston Center
Thu 06:26:20 PM 29.5353 -89.8653 256° West 172 198 4,000 -706 Descending Houston Center
Thu 06:26:33 PM 29.5297 -89.8733 232° Southwest 183 211 3,900 -640 Descending Houston Center
Thu 06:27:35 PM 29.4997 -89.9133 229° Southwest 173 199 3,200 -667 Descending Houston Center
Thu 06:27:45 PM 29.4953 -89.9242 245° Southwest 170 196 3,100 -310 Descending Houston Center
Thu 06:28:33 PM 29.4714 -89.9589 232° Southwest 163 188 2,900 -110 Descending Houston Center
Thu 06:29:34 PM 29.4478 -89.9981 235° Southwest 151 174 2,900  Level Houston Center
Thu 06:30:41 PM 29.4236 -90.0319 231° Southwest 152 175 2,900  Level Houston Center
Thu 06:31:44 PM 29.3967 -90.0725 233° Southwest 146 168 2,900 -816 Level Houston Center
Thu 06:32:24 PM 29.3867 -90.1128 254° West 159 183 1,500 -2,100 Descending Houston Center

Login

Don't have an account? Register now (free) for customized features, flight alerts, and more!